Portada
METAR-TAF:

METAR-TAF

Aeropuertos :

Albacete, España

Aeropuerto de Albacete

latitud: 38-57N, longitud: 001-51W, altitud: 702 m

Observación

El informe se hizo hace 47 minutos, a las 18:00 UTC
Viento 5 kt del sur, variando entre sur-sureste y sur-suroeste
Temperatura 18°C
Humedad 73%
Presión 1021 hPa
Visibilidad 10 km o más
sin nubes por debajo de 1500 m y sin presencia de cumulonimbus.

METAR: LEAB 171800Z 18005KT 150V210 CAVOK 18/13 Q1021 NOSIG

Hora: 20:47 (18:47 UTC)

Pronóstico

El informe se hizo hace 1 hora y 47 minutos, a las 17:00 UTC
Pronóstico válido del 17 a las 18 UTC al 18 a las 03 UTC
Viento 10 kt del sur-sureste
Visibilidad 10 km o más
sin nubes por debajo de 1500 m y sin presencia de cumulonimbus.
Probabilidad 30% :
Temporalmente
del 18 a las 00 UTC al 18 a las 03 UTC
Visibilidad: 0800 m
Cielo nuboso a una altura de 800 ft
niebla en bancos

TAF: LEAB 171700Z 1718/1803 16010KT CAVOK PROB30 TEMPO 1800/1803 0800 BCFG BKN008

Observaciones y pronósticos meteorológicos de más de 4000 aeropuertos (mensajes METAR y TAF).

Los puntos amarillos y rojos representan las estaciones disponibles.

Ponga el ratón en el punto deseado para ver el nombre de la estación.

Haga clic para ver las observaciones y los pronósticos meteorológicos.

Para cambiar el mapa : haga clic en los botones verdes con una cruz de color negro para hacer un zoom, en el botón verde con un guión para alejar o en las flechas verdes para mapas adyacentes.


METAR-TAF: